Terminal Aerodrome Forecast
Issued by NWS Portland, OR

Home | Current Version | Previous Version | Text Only | Print | Product List | Glossary On
Versions: 1 2 3 4 5 6 7 8 9 10 11 12 13 14 15 16 17
000
FTUS46 KPQR 260536
TAFAST
TAF
KAST 260536Z 2606/2706 24004KT P6SM -SHRA SCT025 OVC050
     FM260900 19011G18KT 4SM -RA BR SCT015 OVC025
     FM261500 24007KT P6SM -SHRA BKN025 OVC040
     FM262100 20007KT P6SM -SHRA SCT025 BKN040
     FM270300 VRB03KT P6SM VCSH BKN040=

USA.gov is the U.S. government's official web portal to all federal, state and local government web resources and services.